createdAt,value
2018-08-18T00:01:07.091Z,8.95
2018-08-18T00:03:38.436Z,4.85
2018-08-18T00:06:10.858Z,5.90
2018-08-18T00:08:41.016Z,5.25
2018-08-18T00:11:12.823Z,4.95
2018-08-18T00:13:56.010Z,5.00
2018-08-18T00:16:29.609Z,5.28
2018-08-18T00:19:01.677Z,6.05
2018-08-18T00:21:34.139Z,4.03
2018-08-18T00:24:12.553Z,6.90
2018-08-18T00:26:43.390Z,5.65
2018-08-18T00:29:16.085Z,4.97
2018-08-18T00:31:53.058Z,7.55
2018-08-18T00:34:25.484Z,7.05
2018-08-18T00:36:58.716Z,5.35
2018-08-18T00:39:32.461Z,5.45
2018-08-18T00:42:02.684Z,6.37
2018-08-18T00:44:36.300Z,5.75
2018-08-18T00:47:09.839Z,5.50
2018-08-18T00:49:42.166Z,7.15
2018-08-18T00:52:14.638Z,5.20
2018-08-18T00:54:54.908Z,4.97
2018-08-18T00:57:39.715Z,7.50
2018-08-18T01:00:13.015Z,6.10
2018-08-18T01:02:44.376Z,6.62
2018-08-18T01:08:07.214Z,6.20
2018-08-18T01:10:42.165Z,5.87
2018-08-18T01:15:53.028Z,5.37
2018-08-18T01:18:31.753Z,6.60
2018-08-18T01:21:05.142Z,5.67
2018-08-18T01:23:38.148Z,7.40
2018-08-18T01:26:11.874Z,7.03
2018-08-18T01:28:44.580Z,6.22
2018-08-18T01:31:35.137Z,7.12
2018-08-18T01:34:12.852Z,4.78
2018-08-18T01:36:44.769Z,4.67
2018-08-18T01:39:17.969Z,5.53
2018-08-18T01:45:06.571Z,6.30
2018-08-18T01:47:41.126Z,6.17
2018-08-18T01:50:18.347Z,7.97
2018-08-18T01:53:00.431Z,5.90
2018-08-18T01:55:39.580Z,7.87
2018-08-18T01:58:13.384Z,8.15
2018-08-18T02:00:44.352Z,8.65
2018-08-18T02:03:18.412Z,6.62
2018-08-18T02:05:50.709Z,6.30
2018-08-18T02:08:24.520Z,6.00
2018-08-18T02:10:56.620Z,6.80
2018-08-18T02:13:38.055Z,8.53
2018-08-18T02:16:14.922Z,8.80
2018-08-18T02:18:47.715Z,6.83
2018-08-18T02:24:18.078Z,7.67
2018-08-18T02:26:49.324Z,7.03
2018-08-18T02:29:20.082Z,8.63
2018-08-18T02:31:53.265Z,8.58
2018-08-18T02:34:26.648Z,8.13
2018-08-18T02:37:00.311Z,7.70
2018-08-18T02:39:31.559Z,10.38
2018-08-18T02:42:12.101Z,9.05
2018-08-18T02:44:49.818Z,8.13
2018-08-18T02:47:22.478Z,8.23
2018-08-18T02:49:58.964Z,7.00
2018-08-18T02:52:43.230Z,8.45
2018-08-18T02:55:21.246Z,8.08
2018-08-18T02:57:52.206Z,8.78
2018-08-18T03:00:29.580Z,6.25
2018-08-18T03:03:06.055Z,8.08
2018-08-18T03:05:48.118Z,7.60
2018-08-18T03:08:20.820Z,7.67
2018-08-18T03:10:52.608Z,7.03
2018-08-18T03:13:26.123Z,9.65
2018-08-18T03:16:02.319Z,6.60
2018-08-18T03:19:00.539Z,10.00
2018-08-18T03:21:36.461Z,10.08
2018-08-18T03:24:25.096Z,9.95
2018-08-18T03:27:01.806Z,11.30
2018-08-18T03:29:42.260Z,10.38
2018-08-18T03:32:14.930Z,11.93
2018-08-18T03:34:50.380Z,12.55
2018-08-18T03:37:32.868Z,12.60
2018-08-18T03:40:05.260Z,14.35
2018-08-18T03:42:45.424Z,14.63
2018-08-18T03:45:15.813Z,13.70
2018-08-18T03:47:45.995Z,13.93
2018-08-18T03:50:20.669Z,16.32
2018-08-18T03:52:51.128Z,17.87
2018-08-18T03:55:37.171Z,14.85
2018-08-18T03:58:08.222Z,16.45
2018-08-18T04:00:39.777Z,18.17
2018-08-18T04:03:09.895Z,18.57
2018-08-18T04:05:40.596Z,19.87
2018-08-18T04:08:10.705Z,17.75
2018-08-18T04:10:40.732Z,20.23
2018-08-18T04:13:15.085Z,16.23
2018-08-18T04:15:47.572Z,19.48
2018-08-18T04:18:20.223Z,18.57
2018-08-18T04:20:51.642Z,19.62
2018-08-18T04:23:25.777Z,19.60
2018-08-18T04:25:57.512Z,18.02
2018-08-18T04:28:31.654Z,18.60
2018-08-18T04:31:02.932Z,19.00
2018-08-18T04:33:35.504Z,18.48
2018-08-18T04:36:05.622Z,18.57
2018-08-18T04:38:39.370Z,17.70
2018-08-18T04:41:09.894Z,18.20
2018-08-18T04:43:41.291Z,17.95
2018-08-18T04:46:12.191Z,20.25
2018-08-18T04:48:45.677Z,22.27
2018-08-18T04:51:17.034Z,16.65
2018-08-18T04:53:48.413Z,19.02
2018-08-18T04:56:20.428Z,22.02
2018-08-18T04:58:50.420Z,16.50
2018-08-18T05:01:20.908Z,16.65
2018-08-18T05:04:04.503Z,15.18
2018-08-18T05:06:35.385Z,15.43
2018-08-18T05:09:09.237Z,15.85
2018-08-18T05:11:41.909Z,13.18
2018-08-18T05:14:12.093Z,18.27
2018-08-18T05:16:45.588Z,15.23
2018-08-18T05:19:15.802Z,15.72
2018-08-18T05:21:55.604Z,14.45
2018-08-18T05:24:31.203Z,11.45
2018-08-18T05:27:22.873Z,14.43
2018-08-18T05:29:57.912Z,8.80
2018-08-18T05:32:29.463Z,13.20
2018-08-18T05:35:03.216Z,13.32
2018-08-18T05:37:33.388Z,12.63
2018-08-18T05:40:05.669Z,15.35
2018-08-18T05:42:39.773Z,15.53
2018-08-18T05:45:27.916Z,14.58
2018-08-18T05:47:58.962Z,12.47
2018-08-18T05:50:36.693Z,14.33
2018-08-18T05:53:23.816Z,13.35
2018-08-18T05:55:56.696Z,14.45
2018-08-18T05:58:28.302Z,14.65
2018-08-18T06:01:02.567Z,11.25
2018-08-18T06:03:32.992Z,11.85
2018-08-18T06:06:03.113Z,13.48
2018-08-18T06:08:36.051Z,9.45
2018-08-18T06:11:06.682Z,12.53
2018-08-18T06:13:40.899Z,10.63
2018-08-18T06:16:13.654Z,13.03
2018-08-18T06:18:47.995Z,10.85
2018-08-18T06:21:19.056Z,9.78
2018-08-18T06:23:51.040Z,11.35
2018-08-18T06:26:22.406Z,9.28
2018-08-18T06:28:56.154Z,11.08
2018-08-18T06:31:27.318Z,15.50
2018-08-18T06:36:40.686Z,9.75
2018-08-18T06:39:11.444Z,7.55
2018-08-18T06:41:41.793Z,9.40
2018-08-18T06:44:12.364Z,7.72
2018-08-18T06:46:42.369Z,8.83
2018-08-18T06:49:13.384Z,9.43
2018-08-18T06:51:46.201Z,8.13
2018-08-18T06:54:18.754Z,7.58
2018-08-18T06:56:51.683Z,6.53
2018-08-18T06:59:23.983Z,7.17
2018-08-18T07:01:54.476Z,7.85
2018-08-18T07:04:28.784Z,8.88
2018-08-18T07:09:13.236Z,6.85
2018-08-18T07:11:43.765Z,4.10
2018-08-18T07:14:16.411Z,3.17
2018-08-18T07:16:48.621Z,4.70
2018-08-18T07:19:19.971Z,5.37
2018-08-18T07:21:53.457Z,9.23
2018-08-18T07:24:24.197Z,3.95
2018-08-18T07:26:55.754Z,2.87
2018-08-18T07:29:28.466Z,5.58
2018-08-18T07:31:59.104Z,5.33
2018-08-18T07:34:29.199Z,3.35
2018-08-18T07:36:59.400Z,3.02
2018-08-18T07:39:30.737Z,4.85
2018-08-18T07:42:02.240Z,4.72
2018-08-18T07:44:33.032Z,6.00
2018-08-18T07:47:11.206Z,5.15
2018-08-18T07:49:43.873Z,2.92
2018-08-18T07:52:15.492Z,5.30
2018-08-18T07:54:46.291Z,4.62
2018-08-18T07:57:16.906Z,4.67
2018-08-18T08:00:03.994Z,3.40
2018-08-18T08:02:34.909Z,3.75
2018-08-18T08:05:06.871Z,4.33
2018-08-18T08:07:37.075Z,5.83
2018-08-18T08:10:08.993Z,3.77
2018-08-18T08:12:39.233Z,5.08
2018-08-18T08:15:12.955Z,3.62
2018-08-18T08:17:45.224Z,2.98
2018-08-18T08:20:18.774Z,5.30
2018-08-18T08:22:50.480Z,4.70
2018-08-18T08:25:20.538Z,4.30
2018-08-18T08:27:53.077Z,5.12
2018-08-18T08:30:25.794Z,3.45
2018-08-18T08:32:56.686Z,2.80
2018-08-18T08:35:27.428Z,2.90
2018-08-18T08:38:00.210Z,5.03
2018-08-18T08:40:31.869Z,4.95
2018-08-18T08:46:00.149Z,2.15
2018-08-18T08:48:32.270Z,4.35
2018-08-18T08:51:05.152Z,6.85
2018-08-18T08:53:37.119Z,3.70
2018-08-18T08:56:11.425Z,5.42
2018-08-18T08:58:45.586Z,5.05
2018-08-18T09:01:17.667Z,4.40
2018-08-18T09:03:50.887Z,3.55
2018-08-18T09:06:22.502Z,5.30
2018-08-18T09:08:57.681Z,5.53
2018-08-18T09:11:31.460Z,6.12
2018-08-18T09:14:09.549Z,4.50
2018-08-18T09:16:40.970Z,4.53
2018-08-18T09:19:13.320Z,5.00
2018-08-18T09:21:49.019Z,2.87
2018-08-18T09:24:20.661Z,4.92
2018-08-18T09:26:53.732Z,4.83
2018-08-18T09:29:27.088Z,5.20
2018-08-18T09:32:00.716Z,4.45
2018-08-18T09:34:56.342Z,1.72
2018-08-18T09:37:28.233Z,4.28
2018-08-18T09:39:59.558Z,4.75
2018-08-18T09:42:30.456Z,5.20
2018-08-18T09:45:02.496Z,3.05
2018-08-18T09:47:34.524Z,3.87
2018-08-18T09:50:05.928Z,6.90
2018-08-18T09:52:36.703Z,3.60
2018-08-18T09:55:07.800Z,4.05
2018-08-18T09:57:42.608Z,5.50
2018-08-18T10:03:01.148Z,4.92
2018-08-18T10:05:31.670Z,3.55
2018-08-18T10:08:07.433Z,5.25
2018-08-18T10:10:43.980Z,5.85
2018-08-18T10:13:16.467Z,2.72
2018-08-18T10:15:48.446Z,4.12
2018-08-18T10:18:22.448Z,3.17
2018-08-18T10:20:53.636Z,2.30
2018-08-18T10:23:24.982Z,6.08
2018-08-18T10:25:55.957Z,3.75
2018-08-18T10:28:27.258Z,3.55
2018-08-18T10:31:03.772Z,6.72
2018-08-18T10:33:39.484Z,6.10
2018-08-18T10:36:11.764Z,6.55
2018-08-18T10:38:42.595Z,6.28
2018-08-18T10:41:13.979Z,2.33
2018-08-18T10:43:46.464Z,5.15
2018-08-18T10:46:20.731Z,4.53
2018-08-18T10:48:51.385Z,2.05
2018-08-18T10:51:39.577Z,4.35
2018-08-18T10:54:10.153Z,2.83
2018-08-18T10:56:40.521Z,5.87
2018-08-18T10:59:18.138Z,4.60
2018-08-18T11:02:03.984Z,3.25
2018-08-18T11:04:35.929Z,4.67
2018-08-18T11:07:06.958Z,4.05
2018-08-18T11:09:39.796Z,2.92
2018-08-18T11:12:10.068Z,4.12
2018-08-18T11:14:44.133Z,3.98
2018-08-18T12:09:51.085Z,2.65
2018-08-18T12:12:23.245Z,3.72
2018-08-18T12:14:54.434Z,3.70
2018-08-18T12:17:25.373Z,2.35
2018-08-18T12:20:00.944Z,3.35
2018-08-18T12:22:32.734Z,3.80
2018-08-18T12:25:04.916Z,2.10
2018-08-18T12:27:36.495Z,2.62
2018-08-18T12:30:12.388Z,2.08
2018-08-18T12:32:45.535Z,2.80
2018-08-18T12:35:16.707Z,4.53
2018-08-18T12:37:49.377Z,2.80
2018-08-18T12:40:20.500Z,4.87
2018-08-18T12:42:51.409Z,3.40
2018-08-18T12:45:22.109Z,3.10
2018-08-18T12:48:01.919Z,4.20
2018-08-18T12:50:34.952Z,3.20
2018-08-18T12:53:09.933Z,2.35
2018-08-18T12:55:47.382Z,2.05
2018-08-18T12:58:18.704Z,2.95
2018-08-18T13:00:59.773Z,4.30
2018-08-18T13:06:16.113Z,4.28
2018-08-18T13:08:47.449Z,4.72
2018-08-18T13:11:20.273Z,4.75
2018-08-18T13:13:56.906Z,5.80
2018-08-18T13:16:30.690Z,3.40
2018-08-18T13:19:01.344Z,2.60
2018-08-18T13:21:32.163Z,3.85
2018-08-18T13:24:04.067Z,9.08
2018-08-18T13:26:39.369Z,3.92
2018-08-18T13:29:13.938Z,3.40
2018-08-18T13:31:47.488Z,2.70
2018-08-18T13:34:19.593Z,5.87
2018-08-18T13:36:50.940Z,2.42
2018-08-18T13:39:21.925Z,5.33
2018-08-18T13:41:52.368Z,4.87
2018-08-18T13:44:31.707Z,4.78
2018-08-18T13:47:06.076Z,3.33
2018-08-18T13:49:36.998Z,2.42
2018-08-18T13:52:12.842Z,5.95
2018-08-18T13:54:46.141Z,6.53
2018-08-18T13:57:21.617Z,4.58
2018-08-18T13:59:51.841Z,5.78
2018-08-18T14:02:22.566Z,3.35
2018-08-18T14:04:53.758Z,5.10
2018-08-18T14:07:24.991Z,4.12
2018-08-18T14:09:59.565Z,6.53
2018-08-18T14:12:31.720Z,4.10
2018-08-18T14:15:09.012Z,5.05
2018-08-18T14:17:40.044Z,4.00
2018-08-18T14:20:10.014Z,3.25
2018-08-18T14:22:40.649Z,3.72
2018-08-18T14:27:56.555Z,6.10
2018-08-18T14:30:26.689Z,2.98
2018-08-18T14:32:57.236Z,3.67
2018-08-18T14:35:29.729Z,5.03
2018-08-18T14:38:00.419Z,6.37
2018-08-18T14:40:33.755Z,4.92
2018-08-18T14:43:05.121Z,4.55
2018-08-18T14:45:35.786Z,4.78
2018-08-18T14:48:08.353Z,5.92
2018-08-18T14:50:38.652Z,3.75
2018-08-18T14:53:18.985Z,3.85
2018-08-18T14:55:52.355Z,5.92
2018-08-18T14:58:27.545Z,4.47
2018-08-18T15:01:03.236Z,4.58
2018-08-18T15:03:34.496Z,5.15
2018-08-18T15:06:05.430Z,6.03
2018-08-18T15:08:36.346Z,4.62
2018-08-18T15:11:08.712Z,5.28
2018-08-18T15:13:39.973Z,6.83
2018-08-18T15:16:10.688Z,4.90
2018-08-18T15:18:40.919Z,4.62
2018-08-18T15:21:13.648Z,3.55
2018-08-18T15:23:47.201Z,2.83
2018-08-18T15:26:16.894Z,5.62
2018-08-18T15:28:47.362Z,4.67
2018-08-18T15:31:20.399Z,5.28
2018-08-18T15:33:51.867Z,4.22
2018-08-18T15:36:34.311Z,5.55
2018-08-18T15:39:05.806Z,5.97
2018-08-18T15:41:41.209Z,8.50
2018-08-18T15:44:15.026Z,4.58
2018-08-18T15:46:45.747Z,6.67
2018-08-18T15:49:19.459Z,6.58
2018-08-18T15:51:51.408Z,5.05
2018-08-18T15:54:25.133Z,5.50
2018-08-18T15:56:56.942Z,5.33
2018-08-18T15:59:30.121Z,6.28
2018-08-18T16:02:05.079Z,5.58
2018-08-18T16:04:38.544Z,5.83
2018-08-18T16:07:28.163Z,5.75
2018-08-18T16:10:03.868Z,7.83
2018-08-18T16:12:35.159Z,6.53
2018-08-18T16:15:10.289Z,8.78
2018-08-18T16:17:45.330Z,7.55
2018-08-18T16:22:59.369Z,7.62
2018-08-18T16:25:46.729Z,9.18
2018-08-18T16:28:24.073Z,5.47
2018-08-18T16:31:00.069Z,5.85
2018-08-18T16:33:32.210Z,3.75
2018-08-18T16:36:05.312Z,6.20
2018-08-18T16:38:39.814Z,8.13
2018-08-18T16:41:12.331Z,9.23
2018-08-18T16:43:45.589Z,7.22
2018-08-18T16:46:27.206Z,4.90
2018-08-18T16:49:02.079Z,7.28
2018-08-18T16:51:40.138Z,8.00
2018-08-18T16:54:26.377Z,8.93
2018-08-18T16:57:01.979Z,14.23
2018-08-18T16:59:40.430Z,13.55
2018-08-18T17:02:28.584Z,5.75
2018-08-18T17:07:48.659Z,8.08
2018-08-18T17:10:47.698Z,9.05
2018-08-18T17:13:24.831Z,6.05
2018-08-18T17:15:56.276Z,6.60
2018-08-18T17:18:33.287Z,8.75
2018-08-18T17:21:10.177Z,7.92
2018-08-18T17:23:45.915Z,6.12
2018-08-18T17:26:22.171Z,22.77
2018-08-18T17:28:53.016Z,8.53
2018-08-18T17:31:25.152Z,8.50
2018-08-18T17:33:56.943Z,8.23
2018-08-18T17:36:30.828Z,7.80
2018-08-18T17:39:05.404Z,8.33
2018-08-18T17:41:38.943Z,5.53
2018-08-18T17:44:17.808Z,8.53
2018-08-18T17:46:57.892Z,8.83
2018-08-18T17:49:29.431Z,10.48
2018-08-18T17:52:07.706Z,10.63
2018-08-18T17:54:41.333Z,10.28
2018-08-18T17:57:15.830Z,10.80
2018-08-18T17:59:46.860Z,9.65
2018-08-18T18:02:18.010Z,11.57
2018-08-18T18:04:59.337Z,10.60
2018-08-18T18:07:31.182Z,9.45
2018-08-18T18:10:02.335Z,9.15
2018-08-18T18:12:34.615Z,11.20
2018-08-18T18:15:42.993Z,10.82
2018-08-18T18:18:20.525Z,10.23
2018-08-18T18:20:55.247Z,12.63
2018-08-18T18:23:26.546Z,9.98
2018-08-18T18:25:59.756Z,11.22
2018-08-18T18:28:31.204Z,9.18
2018-08-18T18:31:04.623Z,10.03
2018-08-18T18:33:34.871Z,11.30
2018-08-18T18:36:07.686Z,13.05
2018-08-18T18:38:56.076Z,10.90
2018-08-18T18:41:27.447Z,10.43
2018-08-18T18:44:06.483Z,12.00
2018-08-18T18:46:41.960Z,11.97
2018-08-18T18:49:32.793Z,11.70
2018-08-18T18:52:03.750Z,11.03
2018-08-18T18:54:37.948Z,10.43
2018-08-18T18:57:09.536Z,10.03
2018-08-18T19:00:14.900Z,12.18
2018-08-18T19:02:46.671Z,12.33
2018-08-18T19:05:23.291Z,9.95
2018-08-18T19:08:17.571Z,13.32
2018-08-18T19:10:48.879Z,13.00
2018-08-18T19:13:22.036Z,11.78
2018-08-18T19:15:55.491Z,14.07
2018-08-18T19:18:25.730Z,10.08
2018-08-18T19:20:56.314Z,13.18
2018-08-18T19:23:27.264Z,11.97
2018-08-18T19:26:00.550Z,13.32
2018-08-18T19:28:38.675Z,13.40
2018-08-18T19:31:08.823Z,11.90
2018-08-18T19:33:39.471Z,13.45
2018-08-18T19:36:10.097Z,14.30
2018-08-18T19:38:43.324Z,11.78
2018-08-18T19:41:13.370Z,38.13
2018-08-18T19:43:45.640Z,12.80
2018-08-18T19:46:15.969Z,12.28
2018-08-18T19:48:48.185Z,15.40
2018-08-18T19:51:18.887Z,14.63
2018-08-18T19:53:51.166Z,15.50
2018-08-18T19:56:22.160Z,12.60
2018-08-18T19:58:53.982Z,13.55
2018-08-18T20:01:25.441Z,13.65
2018-08-18T20:04:19.012Z,10.23
2018-08-18T20:06:56.908Z,13.83
2018-08-18T20:09:28.894Z,14.95
2018-08-18T20:12:00.533Z,12.90
2018-08-18T20:14:33.987Z,14.15
2018-08-18T20:17:06.072Z,11.65
2018-08-18T20:19:37.605Z,10.43
2018-08-18T20:22:13.096Z,11.28
2018-08-18T20:24:43.217Z,14.90
2018-08-18T20:27:13.561Z,10.78
2018-08-18T20:29:43.624Z,10.65
2018-08-18T20:32:13.703Z,16.20
2018-08-18T20:34:44.322Z,12.07
2018-08-18T20:37:14.418Z,14.00
2018-08-18T20:39:49.493Z,20.25
2018-08-18T20:42:30.267Z,9.95
2018-08-18T20:45:13.180Z,8.48
2018-08-18T20:47:48.820Z,10.32
2018-08-18T20:50:24.334Z,11.50
2018-08-18T20:56:09.451Z,9.05
2018-08-18T20:58:43.163Z,12.15
2018-08-18T21:01:14.665Z,13.72
2018-08-18T21:03:56.029Z,12.50
2018-08-18T21:06:36.426Z,10.72
2018-08-18T21:09:24.832Z,12.50
2018-08-18T21:14:42.337Z,11.10
2018-08-18T21:17:13.853Z,10.98
2018-08-18T21:19:52.243Z,12.70
2018-08-18T21:25:30.566Z,11.10
2018-08-18T21:28:19.835Z,8.63
2018-08-18T21:30:51.642Z,11.25
2018-08-18T21:33:29.960Z,9.73
2018-08-18T21:36:06.620Z,10.82
2018-08-18T21:38:45.364Z,13.83
2018-08-18T21:41:18.589Z,13.72
2018-08-18T21:43:49.790Z,14.58
2018-08-18T21:46:22.631Z,14.13
2018-08-18T21:48:56.310Z,14.10
2018-08-18T21:51:27.903Z,15.50
2018-08-18T21:54:09.551Z,14.45
2018-08-18T21:57:05.994Z,16.17
2018-08-18T21:59:54.560Z,13.88
2018-08-18T22:02:41.991Z,15.28
2018-08-18T22:05:14.744Z,9.93
2018-08-18T22:07:54.832Z,12.40
2018-08-18T22:10:29.789Z,12.88
2018-08-18T22:13:04.367Z,14.20
2018-08-18T22:18:15.443Z,11.50
2018-08-18T22:20:45.804Z,15.15
2018-08-18T22:23:18.874Z,11.12
2018-08-18T22:25:51.057Z,13.75
2018-08-18T22:28:24.603Z,15.38
2018-08-18T22:30:56.358Z,15.98
2018-08-18T22:33:31.978Z,13.70
2018-08-18T22:36:05.052Z,14.40
2018-08-18T22:38:35.629Z,13.48
2018-08-18T22:41:09.440Z,15.48
2018-08-18T22:43:39.507Z,13.65
2018-08-18T22:46:12.041Z,15.68
2018-08-18T22:49:53.844Z,14.85
2018-08-18T22:52:23.897Z,12.37
2018-08-18T22:54:53.956Z,11.43
2018-08-18T22:57:23.895Z,12.90
2018-08-18T22:59:57.824Z,14.90
2018-08-18T23:02:27.959Z,20.30
2018-08-18T23:05:00.089Z,13.45
2018-08-18T23:07:30.583Z,13.78
2018-08-18T23:10:06.326Z,13.18
2018-08-18T23:12:40.859Z,12.78
2018-08-18T23:15:12.166Z,11.93
2018-08-18T23:17:42.977Z,13.45
2018-08-18T23:20:16.711Z,11.05
2018-08-18T23:22:59.534Z,12.03
2018-08-18T23:25:30.972Z,15.98
2018-08-18T23:28:01.206Z,12.65
2018-08-18T23:30:38.270Z,12.20
2018-08-18T23:33:11.067Z,15.23
2018-08-18T23:35:44.759Z,14.10
2018-08-18T23:38:16.957Z,21.52
2018-08-18T23:40:48.123Z,14.43
2018-08-18T23:43:18.265Z,13.53
2018-08-18T23:45:50.035Z,10.78
2018-08-18T23:48:19.685Z,9.20
2018-08-18T23:50:49.965Z,14.93
2018-08-18T23:53:21.027Z,10.50
2018-08-18T23:55:59.523Z,12.75
2018-08-18T23:58:38.464Z,14.58
